Startpagina
METAR-TAF:

METAR-TAF

Vliegvelden :

Mendoza, Argentinië

breedte: 32-50S, lengte: 068-47W, hoogte: 705 m

Actueel weer

Dit bericht is 32 minuten geleden gemaakt, om 22:00 UTC
Wind 10 kt uit het zuiden
Temperatuur 6°C
Vochtigheid 61%
Druk 1026 hPa
Zicht 10 km of meer
Weinig wolken op 3500 ft
Verspreide wolken op 4000 ft

METAR: SAME 152200Z 18010KT 9999 FEW035 SCT040 06/M01 Q1026

Tijdstip: 19:32 (22:32 UTC)

Verwachting

Dit bericht is 5 uur en het 32 minuten geleden gemaakt, om 17:00 UTC
Verwachting geldig van 15 om 18 UTC tot 16 om 18 UTC
Wind 10 kt uit het zuiden
Zicht: 6000 m
Verspreide wolken op 3000 ft
Geheel bewolkt op 5000 ft
motregen, regen

TAF: SAME 151700Z 1518/1618 18010KT 6000 DZRA SCT030 OVC050 TX08/1520Z TN02/1610Z

Waarnemingen en weersverwachtingen van meer dan 4000 vliegvelden (METAR en TAF).

De beschikbare stations zijn de gele en rode punten op de kaart.

Ga met uw muis naar het station om de naam te zien.

Klik dan om waarnemingen en weersverwachtingen te zien.

kaart wijzigen: klik op de groene knoppen met een zwart kruis om in te zoomen, op de groene knop met een streepje om uit te zoomen of op de groene pijlen voor aangrenzende kaarten.


METAR-TAF: